Terminal Aerodrome Forecast
Issued by NWS

Home | Current Version | Previous Version | Text Only | Print | Product List | Glossary On
Versions: 1 2 3 4 5 6 7 8 9 10 11 12 13 14 15 16 17 18 19 20 21
000
FTUS43 KDVN 220705 AAA
TAFCID
TAF AMD
KCID 220705Z 2207/2306 18012G18KT P6SM VCTS BKN070CB
      TEMPO 2207/2209 VRB20G30KT 2SM TSRA BKN025CB OVC060
     FM221500 11006KT P6SM FEW040 SCT120
     FM222300 20008KT P6SM SCT250=

USA.gov is the U.S. government's official web portal to all federal, state and local government web resources and services.